Time;durP1;ratioP1;P1;durP2;ratioP2;P2;SDS_P1;SDS_P2;PMS_P1;PMS_P2;Temp;Humidity;BMP_temperature;BMP_pressure;BME280_temperature;BME280_humidity;BME280_pressure;Samples;Min_cycle;Max_cycle;Signal;HPM_P1;HPM_P2
2022/10/27 00:00:47;;;;;;;12.63;9.57;;;12.80;99.90;;;;;;5040578;28;20304;-46
2022/10/27 00:03:16;;;;;;;11.93;9.23;;;12.80;99.90;;;;;;5041699;28;20223;-44
2022/10/27 00:05:43;;;;;;;11.00;8.67;;;12.80;99.90;;;;;;5039881;28;20198;-46
2022/10/27 00:08:15;;;;;;;13.63;8.80;;;12.80;99.90;;;;;;5037568;28;20692;-48
2022/10/27 00:10:43;;;;;;;11.47;9.27;;;12.80;99.90;;;;;;5040914;28;20284;-48
2022/10/27 00:13:11;;;;;;;12.33;8.93;;;12.80;99.90;;;;;;5029608;28;20731;-47
2022/10/27 00:15:38;;;;;;;12.90;9.33;;;12.80;99.90;;;;;;5036752;28;20206;-45
2022/10/27 00:18:10;;;;;;;14.43;9.27;;;12.80;99.90;;;;;;5046771;28;20553;-45
2022/10/27 00:20:38;;;;;;;13.07;8.83;;;12.80;99.90;;;;;;5036236;28;20187;-46
2022/10/27 00:23:05;;;;;;;13.20;10.33;;;12.70;99.90;;;;;;5040864;28;20227;-49
2022/10/27 00:25:33;;;;;;;13.50;9.70;;;12.70;99.90;;;;;;5041853;28;20199;-48
2022/10/27 00:28:00;;;;;;;11.73;9.40;;;12.80;99.90;;;;;;5046286;28;20207;-44
2022/10/27 00:30:27;;;;;;;13.47;9.63;;;12.80;99.90;;;;;;5027300;28;20226;-47
2022/10/27 00:32:54;;;;;;;12.67;9.53;;;12.80;99.90;;;;;;5045024;28;20222;-48
2022/10/27 00:35:21;;;;;;;10.97;9.17;;;12.80;99.90;;;;;;5044376;28;20214;-49
2022/10/27 00:37:48;;;;;;;11.10;9.53;;;12.80;99.90;;;;;;5039146;28;20210;-45
2022/10/27 00:40:15;;;;;;;15.87;9.47;;;12.80;99.90;;;;;;5045334;28;20664;-49
2022/10/27 00:42:44;;;;;;;10.40;9.10;;;12.70;99.90;;;;;;5042654;28;20216;-45
2022/10/27 00:45:10;;;;;;;10.87;8.90;;;12.70;99.90;;;;;;5028776;28;20211;-44
2022/10/27 00:47:38;;;;;;;14.87;8.87;;;12.70;99.90;;;;;;5042090;28;20274;-45
2022/10/27 00:50:09;;;;;;;9.87;8.87;;;12.70;99.90;;;;;;5046214;28;20210;-44
2022/10/27 00:52:41;;;;;;;11.03;9.40;;;12.70;99.90;;;;;;5042121;28;20212;-47
2022/10/27 00:55:13;;;;;;;14.80;9.47;;;12.70;99.90;;;;;;5039912;28;20203;-50
2022/10/27 00:57:41;;;;;;;12.47;8.73;;;12.70;99.90;;;;;;5041750;28;20195;-46
2022/10/27 01:00:11;;;;;;;12.30;9.00;;;12.80;99.90;;;;;;5027115;28;20211;-47
2022/10/27 01:02:39;;;;;;;11.73;8.90;;;12.70;99.90;;;;;;5041152;28;20215;-47
2022/10/27 01:05:09;;;;;;;10.07;9.07;;;12.70;99.90;;;;;;5044750;28;20221;-47
2022/10/27 01:07:38;;;;;;;12.93;9.67;;;12.70;99.90;;;;;;5039165;28;20930;-45
2022/10/27 01:10:05;;;;;;;11.20;9.97;;;12.70;99.90;;;;;;5039944;28;20302;-46
2022/10/27 01:12:32;;;;;;;14.53;9.97;;;12.70;99.90;;;;;;5041631;28;20223;-50
2022/10/27 01:15:00;;;;;;;12.13;9.17;;;12.70;99.90;;;;;;5044659;28;20207;-45
2022/10/27 01:17:44;;;;;;;11.33;9.57;;;12.70;99.90;;;;;;5026597;28;20210;-45
2022/10/27 01:20:37;;;;;;;11.07;9.50;;;12.70;99.90;;;;;;5045381;28;20207;-44
2022/10/27 01:23:11;;;;;;;11.63;9.50;;;12.70;99.90;;;;;;5036060;28;20230;-45
2022/10/27 01:26:19;;;;;;;13.40;10.37;;;12.70;99.90;;;;;;5039872;28;20211;-46
2022/10/27 01:29:23;;;;;;;15.23;10.27;;;12.70;99.90;;;;;;5016438;28;20218;-46
2022/10/27 01:32:01;;;;;;;14.73;10.20;;;12.70;99.90;;;;;;5013790;28;20223;-47
2022/10/27 01:34:34;;;;;;;14.47;9.23;;;12.70;99.90;;;;;;5039985;28;20267;-44
2022/10/27 01:37:09;;;;;;;13.03;8.93;;;12.70;99.90;;;;;;5036412;28;23134;-46
2022/10/27 01:39:41;;;;;;;10.07;9.07;;;12.70;99.90;;;;;;5043456;28;20239;-44
2022/10/27 01:42:12;;;;;;;13.07;9.57;;;12.70;99.90;;;;;;5037617;28;20215;-45
2022/10/27 01:44:45;;;;;;;10.60;9.17;;;12.70;99.90;;;;;;5036868;28;20623;-43
2022/10/27 01:47:14;;;;;;;11.67;9.87;;;12.70;99.90;;;;;;5031324;28;20273;-46
2022/10/27 01:49:42;;;;;;;12.47;9.40;;;12.60;99.90;;;;;;5037761;28;20215;-44
2022/10/27 01:52:39;;;;;;;12.63;9.57;;;12.60;99.90;;;;;;5043209;28;20207;-46
2022/10/27 01:55:07;;;;;;;12.00;9.87;;;12.70;99.90;;;;;;5039022;28;20299;-45
2022/10/27 01:57:41;;;;;;;10.43;8.73;;;12.60;99.90;;;;;;5038645;28;20210;-47
2022/10/27 02:00:09;;;;;;;11.73;9.33;;;12.60;99.90;;;;;;5043311;28;20190;-45
2022/10/27 02:02:45;;;;;;;13.30;9.53;;;12.60;99.90;;;;;;5038106;28;20226;-50
2022/10/27 02:05:20;;;;;;;11.80;9.17;;;12.60;99.90;;;;;;5033691;28;20203;-45
2022/10/27 02:07:53;;;;;;;14.77;9.33;;;12.60;99.90;;;;;;5034875;28;20194;-46
2022/10/27 02:10:26;;;;;;;13.60;9.50;;;12.70;99.90;;;;;;5044067;28;20196;-46
2022/10/27 02:12:54;;;;;;;13.03;9.20;;;12.60;99.90;;;;;;5034158;28;20920;-46
2022/10/27 02:15:30;;;;;;;13.37;9.90;;;12.60;99.90;;;;;;5043617;28;20203;-46
2022/10/27 02:18:02;;;;;;;15.57;9.13;;;12.60;99.90;;;;;;5024456;28;20207;-48
2022/10/27 02:20:33;;;;;;;10.33;9.23;;;12.60;99.90;;;;;;5043229;28;20200;-49
2022/10/27 02:23:03;;;;;;;16.13;9.00;;;12.60;99.90;;;;;;5038064;28;20282;-45
2022/10/27 02:25:39;;;;;;;9.63;8.67;;;12.60;99.90;;;;;;5043018;28;20588;-50
2022/10/27 02:28:09;;;;;;;14.97;10.63;;;12.60;99.90;;;;;;5036638;28;20211;-49
2022/10/27 02:30:37;;;;;;;15.87;10.27;;;12.60;99.90;;;;;;5039747;28;20217;-46
2022/10/27 02:33:06;;;;;;;11.90;8.67;;;12.60;99.90;;;;;;5024832;28;21898;-45
2022/10/27 02:35:34;;;;;;;11.90;9.33;;;12.60;99.90;;;;;;5042849;28;20199;-45
2022/10/27 02:38:00;;;;;;;11.63;8.97;;;12.60;99.90;;;;;;5040429;28;20249;-45
2022/10/27 02:40:27;;;;;;;10.23;9.10;;;12.60;99.90;;;;;;5043729;28;20646;-44
2022/10/27 02:42:54;;;;;;;13.27;9.10;;;12.60;99.90;;;;;;5033370;28;20215;-45
2022/10/27 02:45:21;;;;;;;12.73;9.13;;;12.60;99.90;;;;;;5043106;28;20199;-48
2022/10/27 02:47:48;;;;;;;12.93;9.13;;;12.60;99.90;;;;;;5040667;28;20203;-51
2022/10/27 02:50:17;;;;;;;10.60;9.10;;;12.60;99.90;;;;;;5027276;28;20207;-48
2022/10/27 02:52:44;;;;;;;11.30;8.63;;;12.60;99.90;;;;;;5041006;28;20219;-50
2022/10/27 02:55:10;;;;;;;12.50;9.13;;;12.60;99.90;;;;;;5041251;28;20194;-45
2022/10/27 02:57:38;;;;;;;10.17;8.20;;;12.50;99.90;;;;;;5041196;28;20199;-51
2022/10/27 03:00:07;;;;;;;12.47;8.87;;;12.60;99.90;;;;;;5037127;28;20453;-45
2022/10/27 03:02:34;;;;;;;13.07;9.10;;;12.60;99.90;;;;;;5042827;28;20213;-46
2022/10/27 03:05:02;;;;;;;14.53;9.27;;;12.60;99.90;;;;;;5022836;28;20221;-47
2022/10/27 03:07:30;;;;;;;10.70;8.50;;;12.50;99.90;;;;;;5036702;28;20199;-47
2022/10/27 03:09:57;;;;;;;11.70;8.87;;;12.50;99.90;;;;;;5033907;28;20807;-45
2022/10/27 03:12:24;;;;;;;15.80;8.83;;;12.50;99.90;;;;;;5036436;28;20227;-46
2022/10/27 03:14:51;;;;;;;12.03;9.30;;;12.60;99.90;;;;;;5026336;28;20200;-46
2022/10/27 03:17:18;;;;;;;12.00;8.60;;;12.60;99.90;;;;;;5036813;28;20656;-46
2022/10/27 03:19:45;;;;;;;12.03;9.13;;;12.60;99.90;;;;;;5017861;28;20207;-46
2022/10/27 03:22:12;;;;;;;11.70;8.60;;;12.60;99.90;;;;;;5042042;28;20226;-47
2022/10/27 03:24:40;;;;;;;15.53;9.23;;;12.60;99.90;;;;;;5040578;28;20298;-45
2022/10/27 03:27:07;;;;;;;16.47;9.30;;;12.60;99.90;;;;;;5034609;28;20199;-49
2022/10/27 03:29:34;;;;;;;12.60;9.33;;;12.60;99.90;;;;;;5042571;28;20537;-45
2022/10/27 03:32:01;;;;;;;10.37;9.03;;;12.70;99.90;;;;;;5034521;28;20234;-47
2022/10/27 03:34:27;;;;;;;14.13;9.50;;;12.60;99.90;;;;;;5025318;28;20204;-46
2022/10/27 03:36:54;;;;;;;13.93;9.47;;;12.60;99.90;;;;;;5039191;28;20270;-47
2022/10/27 03:39:21;;;;;;;12.73;8.83;;;12.60;99.90;;;;;;5043211;28;20545;-44
2022/10/27 03:41:50;;;;;;;11.53;9.20;;;12.60;99.90;;;;;;5039096;28;20222;-48
2022/10/27 03:44:17;;;;;;;12.07;9.07;;;12.60;99.90;;;;;;5042539;28;20230;-51
2022/10/27 03:46:44;;;;;;;14.80;9.23;;;12.60;99.90;;;;;;5041219;28;20794;-44
2022/10/27 03:49:10;;;;;;;14.00;8.53;;;12.50;99.90;;;;;;5032360;28;20222;-47
2022/10/27 03:51:37;;;;;;;13.83;9.23;;;12.50;99.90;;;;;;5042714;28;20234;-45
2022/10/27 03:54:04;;;;;;;16.57;9.20;;;12.50;99.90;;;;;;5045921;28;20313;-48
2022/10/27 03:56:31;;;;;;;10.43;7.90;;;12.50;99.90;;;;;;5049456;28;20201;-49
2022/10/27 03:58:59;;;;;;;17.03;8.90;;;12.40;99.90;;;;;;5045845;28;20202;-49
2022/10/27 04:01:26;;;;;;;11.10;8.17;;;12.50;99.90;;;;;;5046872;28;20581;-44
2022/10/27 04:03:53;;;;;;;11.90;8.90;;;12.40;99.90;;;;;;5044585;28;20222;-46
2022/10/27 04:06:20;;;;;;;14.33;8.30;;;12.30;99.90;;;;;;5032982;28;20198;-47
2022/10/27 04:08:47;;;;;;;9.20;7.47;;;12.30;99.90;;;;;;5040562;28;20198;-45
2022/10/27 04:11:14;;;;;;;18.73;8.07;;;12.30;99.90;;;;;;5043555;28;20286;-49
2022/10/27 04:13:41;;;;;;;12.13;8.97;;;12.30;99.90;;;;;;5043896;28;20665;-45
2022/10/27 04:16:09;;;;;;;10.83;7.67;;;12.20;99.90;;;;;;5042868;28;20195;-47
2022/10/27 04:18:36;;;;;;;13.73;7.83;;;12.20;99.90;;;;;;5048444;28;20191;-47
2022/10/27 04:21:04;;;;;;;11.47;7.53;;;12.20;99.90;;;;;;5028014;28;22446;-46
2022/10/27 04:23:32;;;;;;;11.40;8.63;;;12.10;99.90;;;;;;5048034;28;20302;-47
2022/10/27 04:25:59;;;;;;;17.23;9.73;;;12.10;99.90;;;;;;5045364;28;20195;-47
2022/10/27 04:28:26;;;;;;;17.27;8.53;;;12.10;99.90;;;;;;5048950;28;20218;-46
2022/10/27 04:30:53;;;;;;;17.47;9.93;;;12.10;99.90;;;;;;5045219;28;20195;-45
2022/10/27 04:33:23;;;;;;;17.97;10.17;;;12.10;99.90;;;;;;5048259;28;20230;-48
2022/10/27 04:35:49;;;;;;;16.00;10.20;;;12.20;99.90;;;;;;5043170;28;20699;-47
2022/10/27 04:38:16;;;;;;;14.90;9.20;;;12.20;99.90;;;;;;5027964;28;20208;-45
2022/10/27 04:40:43;;;;;;;15.43;9.13;;;12.30;99.90;;;;;;5049093;28;20196;-47
2022/10/27 04:43:10;;;;;;;14.53;8.80;;;12.20;99.90;;;;;;5039238;28;20707;-47
2022/10/27 04:45:37;;;;;;;12.13;7.73;;;12.20;99.90;;;;;;5042960;28;20222;-44
2022/10/27 04:48:04;;;;;;;10.37;7.53;;;12.10;99.90;;;;;;5047312;28;20203;-52
2022/10/27 04:50:32;;;;;;;10.30;7.60;;;12.10;99.90;;;;;;5046915;28;20188;-44
2022/10/27 04:53:01;;;;;;;12.00;8.33;;;12.00;99.90;;;;;;5031312;28;20825;-46
2022/10/27 04:55:29;;;;;;;9.60;7.03;;;11.90;99.90;;;;;;5045095;28;20276;-46
2022/10/27 04:57:56;;;;;;;9.93;7.03;;;11.90;99.90;;;;;;5033880;28;20207;-45
2022/10/27 05:00:23;;;;;;;9.73;7.03;;;11.90;99.90;;;;;;5039674;28;20195;-50
2022/10/27 05:02:54;;;;;;;11.17;6.90;;;11.80;99.90;;;;;;5044121;28;20226;-45
2022/10/27 05:05:21;;;;;;;7.20;6.50;;;11.80;99.90;;;;;;5038914;28;20211;-49
2022/10/27 05:07:53;;;;;;;9.67;7.00;;;11.70;99.90;;;;;;5028754;28;20218;-47
2022/10/27 05:10:20;;;;;;;13.63;7.10;;;11.70;99.90;;;;;;5040726;28;20196;-44
2022/10/27 05:12:47;;;;;;;10.10;7.63;;;11.60;99.90;;;;;;5035527;28;20238;-46
2022/10/27 05:15:14;;;;;;;8.00;7.10;;;11.50;99.90;;;;;;5040308;28;20225;-46
2022/10/27 05:17:41;;;;;;;13.77;8.13;;;11.50;99.90;;;;;;5041607;28;20556;-46
2022/10/27 05:20:09;;;;;;;8.27;6.90;;;11.50;99.90;;;;;;5042192;28;20207;-45
2022/10/27 05:22:37;;;;;;;9.47;7.27;;;11.50;99.90;;;;;;5027500;28;20231;-46
2022/10/27 05:25:06;;;;;;;7.40;6.70;;;11.40;99.90;;;;;;5041763;28;20696;-48
2022/10/27 05:27:34;;;;;;;8.23;6.93;;;11.40;99.90;;;;;;5032405;28;20318;-46
2022/10/27 05:30:01;;;;;;;12.23;7.17;;;11.40;99.90;;;;;;5042427;28;20891;-47
2022/10/27 05:32:28;;;;;;;8.43;7.30;;;11.30;99.90;;;;;;5042573;28;20912;-47
2022/10/27 05:34:55;;;;;;;7.50;6.70;;;11.20;99.90;;;;;;5043474;28;20199;-48
2022/10/27 05:37:22;;;;;;;7.93;7.23;;;11.20;99.90;;;;;;5024602;28;20430;-44
2022/10/27 05:39:49;;;;;;;8.53;7.63;;;11.10;99.90;;;;;;5044309;28;20199;-44
2022/10/27 05:42:17;;;;;;;9.70;7.13;;;11.20;99.90;;;;;;5032397;28;20762;-45
2022/10/27 05:44:44;;;;;;;7.60;6.57;;;11.10;99.90;;;;;;5037513;28;20218;-44
2022/10/27 05:47:11;;;;;;;12.30;6.43;;;11.10;99.90;;;;;;5035157;28;20213;-45
2022/10/27 05:49:38;;;;;;;11.17;7.70;;;11.10;99.90;;;;;;5038487;28;20936;-44
2022/10/27 05:52:05;;;;;;;12.07;8.00;;;11.10;99.90;;;;;;5023659;28;20222;-44
2022/10/27 05:54:32;;;;;;;10.40;7.50;;;11.10;99.90;;;;;;5037455;28;20183;-46
2022/10/27 05:56:59;;;;;;;12.37;8.03;;;11.00;99.90;;;;;;5039531;28;20199;-44
2022/10/27 05:59:27;;;;;;;9.97;7.77;;;11.00;99.90;;;;;;5032996;28;20207;-47
2022/10/27 06:01:54;;;;;;;7.77;6.73;;;11.00;99.90;;;;;;5040816;28;20233;-45
2022/10/27 06:04:21;;;;;;;11.20;7.77;;;11.00;99.90;;;;;;5027998;28;20258;-48
2022/10/27 06:06:48;;;;;;;8.67;6.50;;;10.90;99.90;;;;;;5018517;28;20212;-47
2022/10/27 06:09:15;;;;;;;9.77;7.07;;;11.00;99.90;;;;;;5038975;28;20575;-45
2022/10/27 06:11:42;;;;;;;7.93;7.03;;;11.00;99.90;;;;;;5032935;28;20224;-46
2022/10/27 06:14:09;;;;;;;9.60;8.27;;;11.00;99.90;;;;;;5042029;28;20184;-45
2022/10/27 06:16:37;;;;;;;10.13;7.30;;;10.90;99.90;;;;;;5042203;28;20647;-48
2022/10/27 06:19:04;;;;;;;11.87;7.77;;;10.90;99.90;;;;;;5036502;28;20188;-45
2022/10/27 06:21:31;;;;;;;11.30;7.87;;;10.90;99.90;;;;;;5041099;28;20203;-46
2022/10/27 06:23:58;;;;;;;10.07;8.33;;;10.90;99.90;;;;;;5026746;28;20199;-45
2022/10/27 06:26:25;;;;;;;9.63;7.40;;;10.80;99.90;;;;;;5040565;28;20563;-48
2022/10/27 06:28:52;;;;;;;11.60;7.40;;;10.80;99.90;;;;;;5030294;28;20234;-47
2022/10/27 06:31:19;;;;;;;11.83;8.10;;;10.80;99.90;;;;;;5038244;28;20210;-48
2022/10/27 06:33:47;;;;;;;13.83;7.40;;;10.80;99.90;;;;;;5019746;28;20213;-46
2022/10/27 06:36:14;;;;;;;11.23;7.77;;;10.80;99.90;;;;;;5029768;28;20195;-45
2022/10/27 06:38:40;;;;;;;13.40;7.33;;;10.80;99.90;;;;;;5016461;28;20251;-44
2022/10/27 06:41:07;;;;;;;10.03;7.80;;;10.80;99.90;;;;;;5033839;28;20195;-44
2022/10/27 06:43:34;;;;;;;11.40;7.17;;;10.90;99.90;;;;;;5040017;28;20215;-45
2022/10/27 06:46:01;;;;;;;10.93;8.27;;;10.90;99.90;;;;;;5027435;28;20247;-45
2022/10/27 06:48:28;;;;;;;9.93;7.30;;;10.90;99.90;;;;;;5040402;28;20214;-44
2022/10/27 06:50:56;;;;;;;11.53;7.60;;;10.90;99.90;;;;;;5032457;28;20406;-47
2022/10/27 06:53:22;;;;;;;13.20;8.67;;;10.90;99.90;;;;;;5034238;28;20234;-45
2022/10/27 06:55:49;;;;;;;15.80;7.67;;;10.90;99.90;;;;;;5016098;28;20208;-47
2022/10/27 06:58:16;;;;;;;11.97;8.40;;;10.90;99.90;;;;;;5042740;28;20195;-45
2022/10/27 07:00:42;;;;;;;13.97;9.43;;;10.90;99.90;;;;;;5036355;28;20199;-46
2022/10/27 07:03:10;;;;;;;15.67;10.73;;;11.00;99.90;;;;;;5034383;28;20250;-46
2022/10/27 07:05:37;;;;;;;15.63;9.93;;;11.00;99.90;;;;;;5034998;28;20281;-48
2022/10/27 07:08:05;;;;;;;17.30;11.03;;;11.10;99.90;;;;;;5040185;28;20239;-47
2022/10/27 07:10:32;;;;;;;17.27;11.20;;;11.20;99.90;;;;;;5015872;28;20210;-45
2022/10/27 07:12:59;;;;;;;17.63;11.70;;;11.20;99.90;;;;;;5033960;28;20223;-45
2022/10/27 07:15:30;;;;;;;13.43;10.90;;;11.20;99.90;;;;;;5033844;28;20199;-44
2022/10/27 07:17:58;;;;;;;18.97;11.63;;;11.20;99.90;;;;;;5038572;28;20204;-47
2022/10/27 07:20:26;;;;;;;19.23;11.67;;;11.30;99.90;;;;;;5028071;28;20206;-48
2022/10/27 07:22:52;;;;;;;14.67;11.03;;;11.30;99.90;;;;;;5037835;28;20235;-45
2022/10/27 07:25:21;;;;;;;18.50;10.67;;;11.40;99.90;;;;;;5022504;28;20219;-46
2022/10/27 07:27:52;;;;;;;13.87;10.10;;;11.40;99.90;;;;;;5038000;28;20197;-47
2022/10/27 07:30:20;;;;;;;12.67;9.70;;;11.50;99.90;;;;;;5030136;28;20204;-44
2022/10/27 07:32:47;;;;;;;14.63;9.23;;;11.50;99.90;;;;;;5033519;28;21005;-46
2022/10/27 07:35:14;;;;;;;16.63;9.83;;;11.60;99.90;;;;;;5031650;28;20218;-47
2022/10/27 07:37:44;;;;;;;15.60;9.30;;;11.70;99.90;;;;;;5032341;28;20206;-47
2022/10/27 07:40:12;;;;;;;14.07;8.70;;;11.70;99.90;;;;;;5022719;28;20203;-45
2022/10/27 07:42:44;;;;;;;14.90;9.10;;;11.70;99.90;;;;;;5024288;28;20298;-46
2022/10/27 07:45:11;;;;;;;16.00;10.07;;;11.80;99.90;;;;;;5031990;28;20260;-48
2022/10/27 07:47:38;;;;;;;17.30;11.27;;;11.90;99.90;;;;;;5028131;28;20835;-47
2022/10/27 07:50:07;;;;;;;16.23;10.57;;;11.90;99.90;;;;;;5036024;28;20719;-51
2022/10/27 07:52:37;;;;;;;12.67;9.70;;;11.90;99.90;;;;;;5019354;28;20220;-47
2022/10/27 07:55:04;;;;;;;17.53;10.33;;;12.00;99.90;;;;;;5030472;28;20200;-44
2022/10/27 07:57:31;;;;;;;13.00;10.00;;;12.00;99.90;;;;;;5011011;28;20692;-49
2022/10/27 07:59:59;;;;;;;17.03;10.00;;;12.00;99.90;;;;;;5025769;28;20223;-44
2022/10/27 08:02:26;;;;;;;14.63;10.07;;;12.10;99.90;;;;;;5022524;28;20216;-45
2022/10/27 08:04:53;;;;;;;19.70;11.33;;;12.10;99.90;;;;;;5027337;28;20222;-46
2022/10/27 08:07:20;;;;;;;18.10;10.50;;;12.20;99.90;;;;;;5030261;28;20695;-48
2022/10/27 08:09:47;;;;;;;17.40;10.67;;;12.20;99.90;;;;;;5032529;28;20192;-47
2022/10/27 08:12:14;;;;;;;19.50;11.33;;;12.20;99.90;;;;;;5016570;28;20230;-45
2022/10/27 08:14:40;;;;;;;22.23;13.47;;;12.30;99.90;;;;;;5033031;28;20211;-48
2022/10/27 08:17:08;;;;;;;19.67;11.23;;;12.40;99.90;;;;;;5033916;28;20205;-46
2022/10/27 08:19:35;;;;;;;17.90;10.77;;;12.40;99.90;;;;;;5030242;28;20200;-44
2022/10/27 08:22:02;;;;;;;18.00;11.30;;;12.50;99.90;;;;;;5037027;28;20238;-45
2022/10/27 08:24:29;;;;;;;16.27;11.43;;;12.50;99.90;;;;;;5026713;28;20574;-49
2022/10/27 08:26:56;;;;;;;15.93;11.07;;;12.60;99.90;;;;;;5020008;28;20692;-46
2022/10/27 08:29:23;;;;;;;22.27;12.67;;;12.70;99.90;;;;;;5035649;28;20234;-46
2022/10/27 08:31:49;;;;;;;17.77;11.97;;;12.70;99.90;;;;;;5033159;28;20239;-45
2022/10/27 08:34:17;;;;;;;20.37;11.47;;;12.80;99.90;;;;;;5037952;28;20191;-49
2022/10/27 08:36:44;;;;;;;14.33;11.37;;;12.90;99.90;;;;;;5033506;28;20748;-44
2022/10/27 08:39:12;;;;;;;16.50;12.00;;;13.00;99.90;;;;;;5035527;28;20203;-45
2022/10/27 08:41:43;;;;;;;20.67;12.03;;;13.00;99.90;;;;;;5022098;28;20223;-45
2022/10/27 08:44:17;;;;;;;20.53;13.07;;;13.10;99.90;;;;;;5014473;28;20203;-45
2022/10/27 08:46:47;;;;;;;20.03;12.23;;;13.20;99.90;;;;;;5029177;28;20751;-49
2022/10/27 08:49:32;;;;;;;18.53;11.70;;;13.30;99.90;;;;;;5035917;28;20183;-46
2022/10/27 08:52:05;;;;;;;20.20;12.30;;;13.40;99.90;;;;;;5027806;28;20280;-45
2022/10/27 08:54:32;;;;;;;15.83;12.17;;;13.50;99.90;;;;;;5043743;28;20656;-45
2022/10/27 08:57:02;;;;;;;19.53;12.50;;;13.60;99.90;;;;;;5035216;28;20214;-48
2022/10/27 08:59:30;;;;;;;22.43;13.03;;;13.70;99.90;;;;;;5017008;28;20231;-47
2022/10/27 09:02:06;;;;;;;16.20;11.80;;;13.90;99.90;;;;;;5028540;28;20235;-48
2022/10/27 09:04:48;;;;;;;17.20;11.60;;;14.00;99.90;;;;;;5042591;28;20210;-47
2022/10/27 09:07:24;;;;;;;17.10;12.30;;;14.10;99.90;;;;;;5041701;28;20303;-45
2022/10/27 09:09:54;;;;;;;17.33;11.10;;;14.30;99.90;;;;;;5030218;28;20203;-47
2022/10/27 09:12:45;;;;;;;14.23;10.67;;;14.30;99.90;;;;;;5026294;28;20226;-48
2022/10/27 09:15:31;;;;;;;18.23;11.07;;;14.50;99.90;;;;;;5012899;28;20203;-49
2022/10/27 09:18:04;;;;;;;14.27;11.03;;;14.50;99.90;;;;;;5036850;28;20571;-49
2022/10/27 09:20:38;;;;;;;16.07;9.80;;;14.60;99.90;;;;;;5037248;28;20192;-46
2022/10/27 09:23:10;;;;;;;15.53;9.47;;;14.70;99.90;;;;;;5024144;28;20223;-46
2022/10/27 09:25:39;;;;;;;13.43;9.23;;;14.80;99.90;;;;;;5044665;28;20310;-45
2022/10/27 09:28:08;;;;;;;13.80;9.53;;;14.90;99.90;;;;;;5031726;28;20196;-46
2022/10/27 09:30:38;;;;;;;14.80;9.73;;;15.00;99.90;;;;;;5011116;28;20286;-47
2022/10/27 09:33:13;;;;;;;12.93;9.17;;;15.10;99.90;;;;;;5032329;28;20261;-46
2022/10/27 09:35:41;;;;;;;13.17;8.70;;;15.20;99.90;;;;;;5033312;28;20198;-46
2022/10/27 09:38:14;;;;;;;12.40;8.77;;;15.30;99.90;;;;;;5038982;28;20288;-47
2022/10/27 09:40:41;;;;;;;12.37;8.73;;;15.40;99.90;;;;;;5033826;28;20228;-47
2022/10/27 09:43:10;;;;;;;10.53;7.93;;;15.50;99.90;;;;;;5031660;28;20211;-49
2022/10/27 09:45:37;;;;;;;12.73;7.43;;;15.70;99.90;;;;;;5024123;28;20231;-47
2022/10/27 09:48:07;;;;;;;10.07;6.93;;;15.80;99.90;;;;;;5031363;28;20273;-46
2022/10/27 09:50:44;;;;;;;10.30;6.63;;;15.90;99.90;;;;;;5032566;28;20285;-47
2022/10/27 09:53:47;;;;;;;9.70;7.03;;;16.00;99.90;;;;;;5026999;28;20238;-47
2022/10/27 09:56:17;;;;;;;10.50;6.73;;;16.10;99.90;;;;;;5036389;28;20184;-45
2022/10/27 09:58:49;;;;;;;8.70;6.50;;;16.10;99.90;;;;;;5032395;28;20208;-49
2022/10/27 10:01:15;;;;;;;10.37;6.53;;;16.10;99.90;;;;;;5020748;28;20593;-48
2022/10/27 10:03:59;;;;;;;7.57;6.10;;;16.20;99.90;;;;;;5036999;28;20234;-45
2022/10/27 10:06:31;;;;;;;9.77;5.90;;;16.20;99.90;;;;;;5037817;28;20621;-46
2022/10/27 10:09:17;;;;;;;7.67;6.67;;;16.20;99.90;;;;;;5040706;28;20199;-45
2022/10/27 10:11:44;;;;;;;7.47;5.23;;;16.20;99.90;;;;;;5037910;28;20687;-49
2022/10/27 10:14:21;;;;;;;7.47;6.03;;;16.20;99.90;;;;;;5026424;28;20217;-46
2022/10/27 10:16:49;;;;;;;8.60;5.73;;;16.20;99.90;;;;;;5032663;28;20278;-49
2022/10/27 10:19:18;;;;;;;10.70;5.97;;;16.20;99.90;;;;;;5027138;28;20199;-45
2022/10/27 10:21:48;;;;;;;8.30;5.20;;;16.20;99.90;;;;;;5039718;28;20219;-46
2022/10/27 10:24:20;;;;;;;9.73;5.67;;;16.20;99.90;;;;;;5038861;28;20183;-47
2022/10/27 10:26:49;;;;;;;6.67;5.03;;;16.30;99.90;;;;;;5042092;28;20218;-49
2022/10/27 10:29:26;;;;;;;8.17;4.83;;;16.30;99.90;;;;;;5040117;28;20187;-45
2022/10/27 10:32:09;;;;;;;9.37;5.43;;;16.30;99.90;;;;;;5031993;28;20293;-45
2022/10/27 10:34:36;;;;;;;6.00;5.20;;;16.40;99.90;;;;;;5013800;28;20563;-46
2022/10/27 10:37:11;;;;;;;7.13;5.87;;;16.40;99.90;;;;;;5036026;28;20202;-46
2022/10/27 10:39:39;;;;;;;6.13;5.23;;;16.40;99.90;;;;;;5036929;28;20203;-47
2022/10/27 10:42:14;;;;;;;9.20;5.13;;;16.40;99.90;;;;;;5033946;28;20223;-45
2022/10/27 10:44:41;;;;;;;8.33;5.23;;;16.50;99.90;;;;;;5036263;28;20567;-45
2022/10/27 10:47:23;;;;;;;7.57;4.77;;;16.50;99.90;;;;;;5030527;28;20222;-48
2022/10/27 10:49:53;;;;;;;9.00;5.10;;;16.60;99.90;;;;;;5022285;28;20211;-46
2022/10/27 10:52:24;;;;;;;8.50;5.00;;;16.60;99.90;;;;;;5031142;28;20207;-47
2022/10/27 10:54:52;;;;;;;7.17;4.07;;;16.70;99.90;;;;;;5031416;28;20191;-51
2022/10/27 10:57:28;;;;;;;5.93;5.20;;;16.80;99.90;;;;;;5039000;28;20195;-46
2022/10/27 10:59:56;;;;;;;5.47;4.00;;;16.90;99.90;;;;;;5038470;28;20206;-44
2022/10/27 11:02:28;;;;;;;8.30;3.90;;;16.90;99.90;;;;;;5024900;28;20230;-46
2022/10/27 11:04:57;;;;;;;7.80;4.60;;;17.00;99.90;;;;;;5018988;28;20218;-49
2022/10/27 11:07:26;;;;;;;7.03;4.50;;;17.10;99.90;;;;;;5035920;28;20215;-50
2022/10/27 11:10:01;;;;;;;6.23;3.60;;;17.20;99.90;;;;;;5036256;28;20195;-46
2022/10/27 11:12:34;;;;;;;5.03;3.77;;;17.20;99.90;;;;;;5035652;28;20215;-45
2022/10/27 11:15:05;;;;;;;6.00;3.90;;;17.30;99.90;;;;;;5031406;28;20214;-47
2022/10/27 11:17:36;;;;;;;7.27;4.13;;;17.30;99.90;;;;;;5031579;28;20191;-45
2022/10/27 11:20:06;;;;;;;6.87;3.87;;;17.40;99.90;;;;;;5037931;28;20203;-46
2022/10/27 11:22:36;;;;;;;5.53;3.33;;;17.40;99.90;;;;;;5024669;28;20230;-45
2022/10/27 11:25:10;;;;;;;5.47;3.67;;;17.40;99.90;;;;;;5035469;28;20207;-47
2022/10/27 11:27:45;;;;;;;9.73;3.77;;;17.40;99.90;;;;;;5038771;28;20225;-45
2022/10/27 11:30:21;;;;;;;4.07;3.60;;;17.50;99.90;;;;;;5034023;28;20191;-46
2022/10/27 11:32:58;;;;;;;6.23;3.20;;;17.50;99.90;;;;;;5036683;28;20234;-45
2022/10/27 11:35:28;;;;;;;5.27;3.13;;;17.70;99.90;;;;;;5038168;28;20211;-46
2022/10/27 11:38:02;;;;;;;7.20;3.93;;;17.70;99.90;;;;;;5021414;28;20207;-49
2022/10/27 11:40:40;;;;;;;6.03;3.20;;;17.90;99.90;;;;;;5038087;28;20195;-47
2022/10/27 11:43:12;;;;;;;5.40;3.17;;;17.90;99.90;;;;;;5035627;28;20299;-45
2022/10/27 11:45:45;;;;;;;8.07;3.50;;;18.00;99.90;;;;;;5036114;28;20621;-45
2022/10/27 11:48:16;;;;;;;6.20;3.10;;;18.10;99.90;;;;;;5038235;28;20199;-44
2022/10/27 11:50:47;;;;;;;7.43;3.50;;;18.20;99.90;;;;;;5032637;28;20209;-45
2022/10/27 11:53:14;;;;;;;9.00;3.60;;;18.30;99.90;;;;;;5021592;28;20227;-48
2022/10/27 11:55:56;;;;;;;4.40;2.80;;;18.20;99.90;;;;;;5037500;28;20207;-45
2022/10/27 11:58:33;;;;;;;7.47;3.03;;;18.30;99.90;;;;;;5032289;28;20206;-46
2022/10/27 12:01:11;;;;;;;7.37;3.23;;;18.30;99.90;;;;;;5026558;28;20203;-46
2022/10/27 12:03:58;;;;;;;3.10;2.70;;;18.40;99.90;;;;;;5029825;28;20230;-45
2022/10/27 12:06:30;;;;;;;7.97;2.60;;;18.40;99.90;;;;;;5034871;28;20223;-45
2022/10/27 12:09:08;;;;;;;4.23;2.97;;;18.50;99.90;;;;;;5024238;28;20211;-47
2022/10/27 12:11:48;;;;;;;4.77;2.60;;;18.60;99.90;;;;;;5033965;28;20218;-45
2022/10/27 12:14:24;;;;;;;4.07;2.97;;;18.60;99.90;;;;;;5035119;28;20280;-45
2022/10/27 12:16:59;;;;;;;2.77;2.30;;;18.70;99.90;;;;;;5030634;28;20203;-46
2022/10/27 12:19:29;;;;;;;7.47;2.33;;;18.80;99.90;;;;;;5039889;28;20195;-47
2022/10/27 12:22:03;;;;;;;5.17;2.70;;;18.80;99.90;;;;;;5033158;28;20491;-45
2022/10/27 12:24:35;;;;;;;6.23;2.73;;;18.80;99.90;;;;;;5027746;28;20211;-46
2022/10/27 12:27:09;;;;;;;7.43;2.80;;;18.80;99.90;;;;;;5042156;28;20219;-46
2022/10/27 12:29:42;;;;;;;2.90;2.40;;;18.80;99.90;;;;;;5041463;28;20205;-49
2022/10/27 12:32:12;;;;;;;4.27;2.63;;;18.80;99.90;;;;;;5031222;28;20266;-45
2022/10/27 12:34:45;;;;;;;3.63;2.40;;;18.80;99.90;;;;;;5036482;28;20936;-49
2022/10/27 12:37:17;;;;;;;4.73;2.20;;;18.80;99.90;;;;;;5032914;28;20220;-47
2022/10/27 12:39:54;;;;;;;3.53;2.10;;;18.90;99.90;;;;;;5024344;28;20214;-45
2022/10/27 12:42:30;;;;;;;3.60;2.27;;;18.90;99.90;;;;;;5038820;28;20225;-47
2022/10/27 12:45:06;;;;;;;4.97;2.40;;;18.90;99.90;;;;;;5037706;28;20195;-45
2022/10/27 12:47:45;;;;;;;7.70;3.00;;;18.90;99.90;;;;;;5040799;28;20214;-46
2022/10/27 12:50:22;;;;;;;5.57;2.10;;;19.00;99.90;;;;;;5040462;28;20595;-52
2022/10/27 12:52:54;;;;;;;5.97;3.07;;;19.00;99.90;;;;;;5034513;28;20227;-45